Terminal Aerodrome Forecast
Issued by NWS Charleston, WV

Current Version | Previous Version | Graphics & Text | Print | Product List | Glossary On
Versions: 1 2 3 4 5 6 7 8 9 10 11 12 13 14 15 16 17 18 19 20 21 22 23 24 25
000
FTUS41 KRLX 052331
TAFHTS
TAF
KHTS 052331Z 0600/0624 00000KT P6SM BKN250
     FM061100 09006KT 4SM -RA OVC028
     FM061300 10006KT 3SM -RA OVC009
     FM061700 15006KT 1 1/2SM -RA OVC006
     FM062000 18005KT 2SM -RA OVC008
     FM062200 21006KT 4SM -RA OVC010=

USA.gov is the U.S. government's official web portal to all federal, state and local government web resources and services.